Time;durP1;ratioP1;P1;durP2;ratioP2;P2;SDS_P1;SDS_P2;PMS_P1;PMS_P2;Temp;Humidity;BMP_temperature;BMP_pressure;BME280_temperature;BME280_humidity;BME280_pressure;Samples;Min_cycle;Max_cycle;Signal;HPM_P1;HPM_P2
2022/08/04 00:00:30;;;;;;;6.28;2.53;;;21.70;99.90;;;;;;5032006;28;20068;-78
2022/08/04 00:03:12;;;;;;;9.15;2.92;;;21.70;99.90;;;;;;5045142;28;20076;-78
2022/08/04 00:06:04;;;;;;;8.02;2.80;;;21.70;99.90;;;;;;5033964;28;20081;-78
2022/08/04 00:08:39;;;;;;;8.95;2.90;;;21.70;99.90;;;;;;5035898;28;20123;-78
2022/08/04 00:11:08;;;;;;;7.57;2.73;;;21.70;99.90;;;;;;5041145;28;20045;-79
2022/08/04 00:13:40;;;;;;;7.80;2.97;;;21.70;99.90;;;;;;5039124;28;20408;-78
2022/08/04 00:16:08;;;;;;;8.48;2.97;;;21.60;99.90;;;;;;5021224;28;20508;-78
2022/08/04 00:18:39;;;;;;;8.45;3.53;;;21.60;99.90;;;;;;5042045;28;20038;-78
2022/08/04 00:21:08;;;;;;;10.30;3.63;;;21.60;99.90;;;;;;5038817;28;20045;-78
2022/08/04 00:23:35;;;;;;;10.60;3.55;;;21.70;99.90;;;;;;5045329;28;20037;-78
2022/08/04 00:26:01;;;;;;;6.35;3.00;;;21.70;99.90;;;;;;5020395;28;20052;-78
2022/08/04 00:28:30;;;;;;;8.10;3.58;;;21.70;99.90;;;;;;5038885;28;20499;-78
2022/08/04 00:30:56;;;;;;;7.03;3.55;;;21.70;99.90;;;;;;5040167;28;20489;-77
2022/08/04 00:33:22;;;;;;;6.57;3.05;;;21.70;99.90;;;;;;5042024;28;20041;-77
2022/08/04 00:35:48;;;;;;;;;;;21.70;99.90;;;;;;5020092;28;20041;-77
2022/08/04 00:38:18;;;;;;;7.72;3.58;;;21.70;99.90;;;;;;5021101;28;19959;-77
2022/08/04 00:41:04;;;;;;;8.85;3.38;;;21.70;99.90;;;;;;5043416;28;20120;-78
2022/08/04 00:43:34;;;;;;;6.65;3.78;;;21.70;99.90;;;;;;5045552;28;21441;-77
2022/08/04 00:46:20;;;;;;;8.98;3.25;;;21.70;99.90;;;;;;5040888;28;20049;-78
2022/08/04 00:48:54;;;;;;;10.70;3.17;;;21.70;99.90;;;;;;5019442;28;20045;-78
2022/08/04 00:51:50;;;;;;;9.35;4.00;;;21.60;99.90;;;;;;5046037;28;20119;-78
2022/08/04 00:54:36;;;;;;;11.68;4.00;;;21.60;99.90;;;;;;5040276;28;20475;-78
2022/08/04 00:57:39;;;;;;;9.25;3.38;;;21.60;99.90;;;;;;5028410;28;20053;-78
2022/08/04 01:00:09;;;;;;;7.10;3.58;;;21.60;99.90;;;;;;5045030;28;20095;-78
2022/08/04 01:02:50;;;;;;;9.88;3.60;;;21.50;99.90;;;;;;5038476;28;20124;-78
2022/08/04 01:05:41;;;;;;;7.43;3.50;;;21.50;99.90;;;;;;5042331;28;20072;-78
2022/08/04 01:08:25;;;;;;;10.18;4.00;;;21.50;99.90;;;;;;5038690;28;20037;-78
2022/08/04 01:11:08;;;;;;;9.00;3.63;;;21.50;99.90;;;;;;5046994;28;20041;-78
2022/08/04 01:13:51;;;;;;;9.00;3.63;;;21.20;99.90;;;;;;5035579;28;20046;-78
2022/08/04 01:16:19;;;;;;;6.35;3.47;;;21.40;99.90;;;;;;5031077;28;20144;-78
2022/08/04 01:19:20;;;;;;;10.18;4.10;;;21.40;99.90;;;;;;5024408;28;20041;-77
2022/08/04 01:22:01;;;;;;;9.48;3.97;;;21.30;99.90;;;;;;5045441;28;20041;-78
2022/08/04 01:24:59;;;;;;;6.78;3.30;;;21.30;99.90;;;;;;5041161;28;20053;-78
2022/08/04 01:27:26;;;;;;;12.60;4.22;;;21.30;99.90;;;;;;5035191;28;20501;-77
2022/08/04 01:29:58;;;;;;;11.75;4.20;;;21.30;99.90;;;;;;5037878;28;20556;-78
2022/08/04 01:32:34;;;;;;;11.80;4.30;;;21.30;99.90;;;;;;5039981;28;20054;-77
2022/08/04 01:35:39;;;;;;;9.43;3.88;;;21.30;99.90;;;;;;5037212;28;20052;-77
2022/08/04 01:38:23;;;;;;;8.82;4.00;;;21.30;99.90;;;;;;5012383;28;20045;-79
2022/08/04 01:40:53;;;;;;;8.57;3.97;;;21.10;99.90;;;;;;5034874;28;20099;-78
2022/08/04 01:43:20;;;;;;;8.95;4.05;;;21.10;99.90;;;;;;5040660;28;20045;-77
2022/08/04 01:45:55;;;;;;;9.75;4.30;;;21.00;99.90;;;;;;5039166;28;20041;-78
2022/08/04 01:48:26;;;;;;;9.73;4.70;;;21.00;99.90;;;;;;5028740;28;20045;-78
2022/08/04 01:50:53;;;;;;;8.55;4.18;;;20.90;99.90;;;;;;5039424;28;20045;-80
2022/08/04 01:53:20;;;;;;;7.82;4.28;;;20.90;99.90;;;;;;5038248;28;20124;-79
2022/08/04 01:55:51;;;;;;;8.70;4.70;;;20.80;99.90;;;;;;5040964;28;20478;-78
2022/08/04 01:58:18;;;;;;;8.90;4.50;;;20.80;99.90;;;;;;5026612;28;20583;-77
2022/08/04 02:01:09;;;;;;;8.90;4.15;;;20.80;99.90;;;;;;5038629;28;20068;-78
2022/08/04 02:03:39;;;;;;;9.27;4.75;;;20.80;99.90;;;;;;5037100;28;20421;-78
2022/08/04 02:06:07;;;;;;;10.38;5.18;;;20.80;99.90;;;;;;5042048;28;20496;-78
2022/08/04 02:08:55;;;;;;;10.63;4.22;;;20.90;99.90;;;;;;5038234;28;20045;-77
2022/08/04 02:11:22;;;;;;;13.13;4.95;;;20.90;99.90;;;;;;5040821;28;20044;-78
2022/08/04 02:13:59;;;;;;;11.45;4.65;;;20.90;99.90;;;;;;5041893;28;20048;-77
2022/08/04 02:16:42;;;;;;;9.40;4.75;;;20.90;99.90;;;;;;5042425;28;20056;-78
2022/08/04 02:19:07;;;;;;;11.40;4.38;;;20.80;99.90;;;;;;5044214;28;20044;-77
2022/08/04 02:21:34;;;;;;;12.50;4.35;;;20.80;99.90;;;;;;5045128;28;20029;-78
2022/08/04 02:24:15;;;;;;;8.63;4.38;;;20.80;99.90;;;;;;5023507;28;20052;-78
2022/08/04 02:26:42;;;;;;;16.58;5.05;;;20.90;99.90;;;;;;5045045;28;20033;-78
2022/08/04 02:29:18;;;;;;;13.13;5.10;;;20.80;99.90;;;;;;5042074;28;20041;-78
2022/08/04 02:32:04;;;;;;;10.55;4.30;;;20.80;99.90;;;;;;5037688;28;20512;-78
2022/08/04 02:34:41;;;;;;;9.60;4.47;;;20.90;99.90;;;;;;5034045;28;20087;-78
2022/08/04 02:37:09;;;;;;;10.15;4.25;;;20.80;99.90;;;;;;5044236;28;20470;-78
2022/08/04 02:39:36;;;;;;;10.52;4.55;;;20.80;99.90;;;;;;5038958;28;20124;-78
2022/08/04 02:42:04;;;;;;;11.45;4.72;;;20.80;99.90;;;;;;5024982;28;20037;-78
2022/08/04 02:44:30;;;;;;;11.88;4.90;;;20.80;99.90;;;;;;5041571;28;20079;-77
2022/08/04 02:47:00;;;;;;;9.90;4.60;;;20.70;99.90;;;;;;5037399;28;20037;-78
2022/08/04 02:49:27;;;;;;;10.52;4.47;;;20.70;99.90;;;;;;5034736;28;20040;-79
2022/08/04 02:51:57;;;;;;;10.45;4.40;;;20.70;99.90;;;;;;5037450;28;20049;-78
2022/08/04 02:54:30;;;;;;;10.18;5.00;;;20.70;99.90;;;;;;5034911;28;20077;-78
2022/08/04 02:56:58;;;;;;;10.68;4.60;;;20.70;99.90;;;;;;5017643;28;20049;-78
2022/08/04 02:59:42;;;;;;;10.20;4.40;;;20.60;99.90;;;;;;5040662;28;20047;-79
2022/08/04 03:02:08;;;;;;;12.43;4.82;;;20.60;99.90;;;;;;5036852;28;20038;-77
2022/08/04 03:04:59;;;;;;;11.50;4.70;;;20.60;99.90;;;;;;5031781;28;20370;-78
2022/08/04 03:08:02;;;;;;;11.82;5.10;;;20.60;99.90;;;;;;5042122;28;20128;-78
2022/08/04 03:10:49;;;;;;;9.73;4.65;;;20.50;99.90;;;;;;5043690;28;20579;-78
2022/08/04 03:13:27;;;;;;;12.23;4.60;;;20.50;99.90;;;;;;5035211;28;20552;-79
2022/08/04 03:16:02;;;;;;;13.20;4.80;;;20.50;99.90;;;;;;5036770;28;20083;-79
2022/08/04 03:18:51;;;;;;;9.00;4.45;;;20.60;99.90;;;;;;5029779;28;20355;-78
2022/08/04 03:21:47;;;;;;;12.40;4.93;;;20.50;99.90;;;;;;5047436;28;20044;-79
2022/08/04 03:24:22;;;;;;;10.52;4.45;;;20.50;99.90;;;;;;5048396;28;20659;-77
2022/08/04 03:27:02;;;;;;;9.20;4.90;;;20.50;99.90;;;;;;5050074;28;20037;-77
2022/08/04 03:30:04;;;;;;;8.55;5.10;;;20.50;99.90;;;;;;5052346;28;20080;-77
2022/08/04 03:32:42;;;;;;;11.65;4.63;;;20.50;99.90;;;;;;5028967;28;20057;-78
2022/08/04 03:35:27;;;;;;;10.20;5.28;;;20.50;99.90;;;;;;5037261;28;20037;-78
2022/08/04 03:38:22;;;;;;;12.55;5.00;;;20.50;99.90;;;;;;5047049;28;20123;-77
2022/08/04 03:41:03;;;;;;;13.05;5.25;;;20.50;99.90;;;;;;5032801;28;20041;-78
2022/08/04 03:44:14;;;;;;;11.45;5.20;;;20.50;99.90;;;;;;5043902;28;20095;-78
2022/08/04 03:47:22;;;;;;;11.55;5.25;;;20.40;99.90;;;;;;5035973;28;20053;-78
2022/08/04 03:50:25;;;;;;;10.63;5.07;;;20.40;99.90;;;;;;5027890;28;20081;-78
2022/08/04 03:53:18;;;;;;;11.98;5.22;;;20.50;99.90;;;;;;5042021;28;20049;-78
2022/08/04 03:56:05;;;;;;;11.20;4.97;;;20.50;99.90;;;;;;5042876;28;20115;-79
2022/08/04 03:58:50;;;;;;;;;;;20.40;99.90;;;;;;5041631;28;20441;-77
2022/08/04 04:01:41;;;;;;;10.77;5.07;;;20.40;99.90;;;;;;5037328;28;19917;-77
2022/08/04 04:04:07;;;;;;;10.63;4.90;;;20.40;99.90;;;;;;5048639;28;20162;-78
2022/08/04 04:06:58;;;;;;;10.80;5.15;;;20.40;99.90;;;;;;5039135;28;20127;-78
2022/08/04 04:09:48;;;;;;;10.82;5.85;;;20.40;99.90;;;;;;5041889;28;20037;-78
2022/08/04 04:12:38;;;;;;;10.38;5.82;;;20.40;99.90;;;;;;5026436;28;20068;-78
2022/08/04 04:15:19;;;;;;;12.57;5.82;;;20.40;99.90;;;;;;5042113;28;20045;-79
2022/08/04 04:18:16;;;;;;;13.20;5.25;;;20.30;99.90;;;;;;5037415;28;20179;-81
2022/08/04 04:21:20;;;;;;;10.75;5.22;;;20.40;99.90;;;;;;5021780;28;20037;-82
2022/08/04 04:24:17;;;;;;;12.30;5.20;;;20.40;99.90;;;;;;5034701;28;20149;-82
2022/08/04 04:26:49;;;;;;;9.25;5.18;;;20.40;99.90;;;;;;4995701;28;20504;-82
2022/08/04 04:29:42;;;;;;;8.50;4.43;;;20.30;99.90;;;;;;5038691;28;20037;-82
2022/08/04 04:32:26;;;;;;;8.55;4.57;;;20.30;99.90;;;;;;5044453;28;20072;-80
2022/08/04 04:35:02;;;;;;;8.63;4.03;;;20.30;99.90;;;;;;5042779;28;20039;-81
2022/08/04 04:37:38;;;;;;;9.75;4.47;;;20.20;99.90;;;;;;5042915;28;21543;-81
2022/08/04 04:40:07;;;;;;;7.03;3.67;;;20.20;99.90;;;;;;5031389;28;20049;-80
2022/08/04 04:43:15;;;;;;;10.75;3.92;;;20.20;99.90;;;;;;5039811;28;20116;-81
2022/08/04 04:45:51;;;;;;;6.78;4.00;;;20.10;99.90;;;;;;5038538;28;20037;-82
2022/08/04 04:48:29;;;;;;;9.32;4.90;;;20.10;99.90;;;;;;5033378;28;20482;-82
2022/08/04 04:51:21;;;;;;;10.93;5.32;;;20.10;99.90;;;;;;5039806;28;20113;-81
2022/08/04 04:54:10;;;;;;;9.07;5.20;;;20.10;99.90;;;;;;5035141;28;20071;-76
2022/08/04 04:56:55;;;;;;;8.10;5.22;;;20.20;99.90;;;;;;5044028;28;20081;-79
2022/08/04 04:59:23;;;;;;;8.05;5.07;;;20.30;99.90;;;;;;5038143;28;20167;-79
2022/08/04 05:02:08;;;;;;;9.80;5.50;;;20.30;99.90;;;;;;5042850;28;20535;-79
2022/08/04 05:04:58;;;;;;;9.73;5.50;;;20.40;99.90;;;;;;5038394;28;20080;-79
2022/08/04 05:07:51;;;;;;;8.75;5.25;;;20.50;99.90;;;;;;5044471;28;20048;-79
2022/08/04 05:10:35;;;;;;;10.18;4.97;;;20.60;99.90;;;;;;5036971;28;20038;-79
2022/08/04 05:13:49;;;;;;;10.85;5.18;;;20.60;99.90;;;;;;5039676;28;20489;-80
2022/08/04 05:16:25;;;;;;;11.68;5.22;;;20.60;99.90;;;;;;5032227;28;20060;-78
2022/08/04 05:19:22;;;;;;;7.90;5.13;;;20.70;99.90;;;;;;5040306;28;20060;-78
2022/08/04 05:21:51;;;;;;;8.67;5.07;;;20.70;99.90;;;;;;5039761;28;20042;-78
2022/08/04 05:24:19;;;;;;;9.63;5.15;;;20.80;99.90;;;;;;5042759;28;20461;-78
2022/08/04 05:26:58;;;;;;;7.95;5.28;;;20.90;99.90;;;;;;5038706;28;20090;-78
2022/08/04 05:29:39;;;;;;;10.13;4.97;;;21.00;99.90;;;;;;5041501;28;20096;-78
2022/08/04 05:32:11;;;;;;;13.38;5.40;;;21.00;99.90;;;;;;5039725;28;20040;-79
2022/08/04 05:34:46;;;;;;;11.55;5.40;;;21.10;99.90;;;;;;5041161;28;20041;-78
2022/08/04 05:37:16;;;;;;;10.73;5.25;;;21.20;99.90;;;;;;5043970;28;20037;-78
2022/08/04 05:39:52;;;;;;;7.55;5.18;;;21.30;99.90;;;;;;5039085;28;20107;-79
2022/08/04 05:42:19;;;;;;;11.55;4.93;;;21.40;99.90;;;;;;5041573;28;20481;-79
2022/08/04 05:44:45;;;;;;;11.85;5.50;;;21.50;99.90;;;;;;5041968;28;20048;-79
2022/08/04 05:47:12;;;;;;;10.85;5.13;;;21.60;99.90;;;;;;5045164;28;20456;-80
2022/08/04 05:49:40;;;;;;;11.55;5.63;;;21.70;99.90;;;;;;5039999;28;20063;-78
2022/08/04 05:52:07;;;;;;;11.00;5.30;;;21.80;99.90;;;;;;5038255;28;20041;-79
2022/08/04 05:54:35;;;;;;;12.15;5.30;;;21.90;99.90;;;;;;5045111;28;20037;-79
2022/08/04 05:57:04;;;;;;;11.82;5.57;;;22.00;99.90;;;;;;5039323;28;20096;-79
2022/08/04 05:59:31;;;;;;;9.73;5.20;;;22.10;99.90;;;;;;5031385;28;20068;-80
2022/08/04 06:01:59;;;;;;;10.63;5.63;;;22.10;99.90;;;;;;5044165;28;20491;-79
2022/08/04 06:04:36;;;;;;;12.02;5.97;;;22.30;99.90;;;;;;5043293;28;20114;-78
2022/08/04 06:07:02;;;;;;;12.05;5.40;;;22.40;99.90;;;;;;5037344;28;20053;-78
2022/08/04 06:09:28;;;;;;;;;;;22.60;99.90;;;;;;5026580;28;20124;-79
2022/08/04 06:11:58;;;;;;;9.57;5.40;;;22.70;99.90;;;;;;5041520;28;19924;-78
2022/08/04 06:14:24;;;;;;;8.48;4.78;;;22.80;99.90;;;;;;5033624;28;20350;-78
2022/08/04 06:16:52;;;;;;;11.40;5.57;;;23.10;99.90;;;;;;5042656;28;20043;-78
2022/08/04 06:19:20;;;;;;;9.25;4.93;;;23.40;99.90;;;;;;5046066;28;20036;-79
2022/08/04 06:21:48;;;;;;;12.48;5.28;;;23.70;99.90;;;;;;5035590;28;20041;-79
2022/08/04 06:24:18;;;;;;;11.50;5.68;;;24.10;99.90;;;;;;5041553;28;20067;-79
2022/08/04 06:26:46;;;;;;;12.10;5.10;;;24.50;99.90;;;;;;5040439;28;20429;-79
2022/08/04 06:29:22;;;;;;;10.73;5.10;;;24.90;99.90;;;;;;5041984;28;20081;-79
2022/08/04 06:31:57;;;;;;;10.48;4.68;;;25.20;99.90;;;;;;5042160;28;20041;-79
2022/08/04 06:34:24;;;;;;;8.93;5.00;;;25.30;99.90;;;;;;5040947;28;20041;-78
2022/08/04 06:36:51;;;;;;;10.00;4.80;;;25.50;99.90;;;;;;5042237;28;20049;-78
2022/08/04 06:39:18;;;;;;;12.30;5.05;;;25.60;99.90;;;;;;5042750;28;20045;-77
2022/08/04 06:41:44;;;;;;;9.57;4.78;;;25.60;99.90;;;;;;5041024;28;20042;-79
2022/08/04 06:44:11;;;;;;;9.25;4.80;;;25.80;99.90;;;;;;5037018;28;20050;-78
2022/08/04 06:46:40;;;;;;;10.52;4.80;;;26.00;99.90;;;;;;5042795;28;20120;-79
2022/08/04 06:49:07;;;;;;;8.70;4.65;;;25.90;99.90;;;;;;5042937;28;20120;-79
2022/08/04 06:51:35;;;;;;;10.65;4.80;;;25.70;99.90;;;;;;5025810;28;20049;-78
2022/08/04 06:54:01;;;;;;;8.65;4.30;;;25.60;99.90;;;;;;5024077;28;20042;-78
2022/08/04 06:56:29;;;;;;;9.30;4.22;;;25.90;99.90;;;;;;5047068;28;20485;-79
2022/08/04 06:58:56;;;;;;;8.25;4.40;;;26.20;99.90;;;;;;5037633;28;20439;-79
2022/08/04 07:01:25;;;;;;;15.20;3.80;;;26.30;99.90;;;;;;5035815;28;20103;-78
2022/08/04 07:03:51;;;;;;;7.82;3.95;;;26.30;99.90;;;;;;5041043;28;20045;-79
2022/08/04 07:06:17;;;;;;;9.05;3.83;;;26.20;99.90;;;;;;5028727;28;20098;-79
2022/08/04 07:08:44;;;;;;;10.25;4.30;;;26.10;99.90;;;;;;5046519;28;20436;-78
2022/08/04 07:11:11;;;;;;;10.02;4.18;;;26.20;99.90;;;;;;5043648;28;20500;-78
2022/08/04 07:13:37;;;;;;;8.82;3.45;;;26.20;99.90;;;;;;5045424;28;20452;-79
2022/08/04 07:16:04;;;;;;;8.75;3.70;;;26.60;99.90;;;;;;5020352;28;20045;-78
2022/08/04 07:18:30;;;;;;;8.82;3.53;;;27.00;99.90;;;;;;5046823;28;20033;-79
2022/08/04 07:20:56;;;;;;;7.28;3.47;;;27.40;99.90;;;;;;5041232;28;20037;-79
2022/08/04 07:23:24;;;;;;;8.70;3.38;;;27.60;99.90;;;;;;5035359;28;20380;-78
2022/08/04 07:25:54;;;;;;;8.60;3.35;;;27.70;99.90;;;;;;5038448;28;20049;-78
2022/08/04 07:28:22;;;;;;;10.07;3.40;;;27.90;99.90;;;;;;5045962;28;20048;-79
2022/08/04 07:30:48;;;;;;;8.98;3.42;;;28.00;99.90;;;;;;5024789;28;20049;-79
2022/08/04 07:33:18;;;;;;;10.57;3.00;;;28.30;99.90;;;;;;5028293;28;20118;-78
2022/08/04 07:35:53;;;;;;;9.20;2.95;;;28.50;99.90;;;;;;5046321;28;20052;-78
2022/08/04 07:38:19;;;;;;;7.00;2.67;;;28.60;99.90;;;;;;5036308;28;20046;-78
2022/08/04 07:40:46;;;;;;;6.97;2.63;;;28.30;99.90;;;;;;5041604;28;20055;-78
2022/08/04 07:43:14;;;;;;;9.07;2.55;;;28.00;99.90;;;;;;5046309;28;20056;-78
2022/08/04 07:45:40;;;;;;;14.55;2.47;;;28.00;99.90;;;;;;5062035;28;20088;-78
2022/08/04 07:48:06;;;;;;;8.40;2.50;;;28.20;99.90;;;;;;5044965;28;20101;-79
2022/08/04 07:50:33;;;;;;;8.82;2.60;;;28.40;99.90;;;;;;5044354;28;20554;-78
2022/08/04 07:53:00;;;;;;;8.80;2.40;;;28.50;99.90;;;;;;5044579;28;20497;-78
2022/08/04 07:55:28;;;;;;;8.88;2.38;;;28.60;99.90;;;;;;5043555;28;20048;-78
2022/08/04 07:57:53;;;;;;;8.27;2.53;;;28.80;99.90;;;;;;5041564;28;20044;-76
2022/08/04 08:00:19;;;;;;;8.48;2.30;;;29.00;99.90;;;;;;5028654;28;20037;-78
2022/08/04 08:02:47;;;;;;;8.77;2.42;;;29.00;99.90;;;;;;5043737;28;20033;-79
2022/08/04 08:05:15;;;;;;;7.63;2.20;;;29.00;99.90;;;;;;5042827;28;20034;-80
2022/08/04 08:07:45;;;;;;;5.57;1.98;;;29.20;99.90;;;;;;5029118;28;20045;-79
2022/08/04 08:10:13;;;;;;;6.65;2.00;;;29.50;99.90;;;;;;5004974;28;20037;-80
2022/08/04 08:12:39;;;;;;;5.50;2.05;;;29.80;99.90;;;;;;5044373;28;20041;-78
2022/08/04 08:15:07;;;;;;;6.53;2.63;;;30.10;99.90;;;;;;5039883;28;20032;-79
2022/08/04 08:17:33;;;;;;;5.85;2.95;;;30.40;99.90;;;;;;5044901;28;20040;-78
2022/08/04 08:19:59;;;;;;;5.43;2.83;;;30.50;99.90;;;;;;5042635;28;20040;-79
2022/08/04 08:22:25;;;;;;;8.40;3.30;;;30.50;99.90;;;;;;5043089;28;20053;-79
2022/08/04 08:24:51;;;;;;;8.98;3.78;;;30.20;99.90;;;;;;5042799;28;20049;-78
2022/08/04 08:27:17;;;;;;;8.30;3.70;;;30.00;99.90;;;;;;5024260;28;20037;-79
2022/08/04 08:29:43;;;;;;;10.00;3.33;;;29.60;99.90;;;;;;5044573;28;20104;-78
2022/08/04 08:32:12;;;;;;;8.95;3.38;;;29.20;99.90;;;;;;5022985;28;20128;-79
2022/08/04 08:34:40;;;;;;;7.13;3.22;;;29.20;99.90;;;;;;5046041;28;20308;-78
2022/08/04 08:37:36;;;;;;;7.63;3.00;;;29.10;99.90;;;;;;5010300;28;20095;-78
2022/08/04 08:40:23;;;;;;;7.97;2.80;;;29.40;99.90;;;;;;5040660;28;20047;-79
2022/08/04 08:43:28;;;;;;;8.38;2.97;;;29.90;99.90;;;;;;5023930;28;20489;-78
2022/08/04 08:46:08;;;;;;;5.65;2.60;;;30.10;99.90;;;;;;5030884;28;20098;-76
2022/08/04 08:48:55;;;;;;;6.35;2.55;;;30.40;99.90;;;;;;5043425;28;20041;-78
2022/08/04 08:51:38;;;;;;;6.18;2.55;;;30.60;99.90;;;;;;5039609;28;20044;-79
2022/08/04 08:54:20;;;;;;;5.75;2.40;;;30.80;99.90;;;;;;5040210;28;20041;-78
2022/08/04 08:57:02;;;;;;;7.68;3.28;;;30.90;99.90;;;;;;5043389;28;20049;-78
2022/08/04 09:00:02;;;;;;;5.97;2.50;;;30.80;99.90;;;;;;5044479;28;20052;-79
2022/08/04 09:02:28;;;;;;;8.95;3.53;;;30.90;99.90;;;;;;5040309;28;20044;-79
2022/08/04 09:05:12;;;;;;;6.93;3.47;;;31.10;99.90;;;;;;5045102;28;20041;-79
2022/08/04 09:08:36;;;;;;;8.35;3.00;;;31.10;99.90;;;;;;5041726;28;20041;-79
2022/08/04 09:11:38;;;;;;;9.55;3.65;;;31.10;99.90;;;;;;4998307;28;20076;-77
2022/08/04 09:14:27;;;;;;;10.68;4.47;;;30.90;99.90;;;;;;4979132;28;20091;-78
2022/08/04 09:17:01;;;;;;;10.27;4.03;;;30.80;99.90;;;;;;5040321;28;20045;-78
2022/08/04 09:19:31;;;;;;;11.85;4.47;;;30.80;99.90;;;;;;5042001;28;20051;-78
2022/08/04 09:22:08;;;;;;;6.68;4.15;;;31.00;99.90;;;;;;5037029;28;20067;-79
2022/08/04 09:24:49;;;;;;;12.65;4.03;;;31.00;99.90;;;;;;5037924;28;20497;-76
2022/08/04 09:27:19;;;;;;;8.75;3.78;;;30.90;99.90;;;;;;5038324;28;20041;-75
2022/08/04 09:30:06;;;;;;;8.35;3.75;;;31.10;99.90;;;;;;5035812;28;20034;-75
2022/08/04 09:32:38;;;;;;;6.47;3.40;;;31.30;99.90;;;;;;5047302;28;20040;-76
2022/08/04 09:35:24;;;;;;;8.82;3.88;;;31.60;99.90;;;;;;5041603;28;20074;-76
2022/08/04 09:37:53;;;;;;;;;;;31.60;99.90;;;;;;5040965;28;20569;-76
2022/08/04 09:40:26;;;;;;;9.10;2.90;;;31.80;99.90;;;;;;5040641;28;19921;-76
2022/08/04 09:43:15;;;;;;;6.55;3.10;;;32.20;99.90;;;;;;5038203;28;20127;-75
2022/08/04 09:46:04;;;;;;;8.73;2.72;;;32.70;99.90;;;;;;5014621;28;20044;-76
2022/08/04 09:48:47;;;;;;;6.30;2.90;;;33.10;99.50;;;;;;5037276;28;20103;-76
2022/08/04 09:51:44;;;;;;;5.35;2.63;;;33.30;99.10;;;;;;5050653;28;20080;-76
2022/08/04 09:54:22;;;;;;;6.10;2.22;;;33.40;98.80;;;;;;5035994;28;20048;-76
2022/08/04 09:57:26;;;;;;;8.85;2.30;;;33.60;99.00;;;;;;5048489;28;20080;-76
2022/08/04 10:00:04;;;;;;;3.92;1.90;;;33.20;98.50;;;;;;5043287;28;20116;-76
2022/08/04 10:02:37;;;;;;;5.20;1.77;;;33.10;98.30;;;;;;5042012;28;20064;-76
2022/08/04 10:05:08;;;;;;;4.93;2.00;;;33.00;98.30;;;;;;5042229;28;20072;-75
2022/08/04 10:07:58;;;;;;;3.45;1.65;;;32.80;98.20;;;;;;5040865;28;20470;-75
2022/08/04 10:10:26;;;;;;;6.03;1.23;;;32.80;98.80;;;;;;5034266;28;20038;-76
2022/08/04 10:13:27;;;;;;;3.95;1.00;;;32.90;98.80;;;;;;5038473;28;20037;-75
2022/08/04 10:16:11;;;;;;;3.95;1.42;;;33.10;97.80;;;;;;5005531;28;20453;-75
2022/08/04 10:18:55;;;;;;;4.45;1.08;;;33.20;97.20;;;;;;5024997;28;20041;-76
2022/08/04 10:21:44;;;;;;;3.90;1.10;;;33.40;97.80;;;;;;5043292;28;20498;-75
2022/08/04 10:24:19;;;;;;;4.97;1.10;;;33.20;96.70;;;;;;5042428;28;20033;-75
2022/08/04 10:27:00;;;;;;;3.53;1.25;;;33.20;96.50;;;;;;5035905;28;20116;-76
2022/08/04 10:29:25;;;;;;;6.05;1.27;;;33.00;97.20;;;;;;5036107;28;20041;-76
2022/08/04 10:32:07;;;;;;;4.70;1.10;;;32.90;97.80;;;;;;5040033;28;20061;-76
2022/08/04 10:34:56;;;;;;;6.40;0.98;;;32.80;97.50;;;;;;5037238;28;20125;-76
2022/08/04 10:37:35;;;;;;;4.50;1.02;;;32.80;97.70;;;;;;5021592;28;20048;-76
2022/08/04 10:43:13;;;;;;;6.82;1.33;;;32.60;97.50;;;;;;5041353;28;20147;-76
2022/08/04 10:45:45;;;;;;;5.93;1.30;;;32.30;97.60;;;;;;5016785;28;20042;-76
2022/08/04 10:48:25;;;;;;;6.72;1.50;;;32.20;97.70;;;;;;5037272;28;20037;-75
2022/08/04 10:51:16;;;;;;;9.60;1.42;;;31.80;97.90;;;;;;5035784;28;20113;-76
2022/08/04 10:53:43;;;;;;;6.10;1.38;;;31.50;98.20;;;;;;5039060;28;20075;-76
2022/08/04 10:56:16;;;;;;;6.72;1.50;;;31.40;98.60;;;;;;5044678;28;20052;-75
2022/08/04 10:58:49;;;;;;;8.50;1.70;;;31.70;99.30;;;;;;5036201;28;20793;-75
2022/08/04 11:01:22;;;;;;;6.93;1.73;;;31.80;99.00;;;;;;5044944;28;20037;-75
2022/08/04 11:03:55;;;;;;;7.57;1.60;;;32.00;99.00;;;;;;5037246;28;20048;-75
2022/08/04 11:06:23;;;;;;;9.57;1.98;;;32.00;99.00;;;;;;5036563;28;20037;-75
2022/08/04 11:08:54;;;;;;;4.63;1.80;;;31.90;99.60;;;;;;5030306;28;20036;-76
2022/08/04 11:11:29;;;;;;;8.02;1.85;;;31.70;99.70;;;;;;5017827;28;20081;-75
2022/08/04 11:14:13;;;;;;;7.15;2.05;;;31.70;99.90;;;;;;5045549;28;20041;-76
2022/08/04 11:17:00;;;;;;;4.30;1.77;;;31.80;99.70;;;;;;5037511;28;20117;-75
2022/08/04 11:19:32;;;;;;;;;;;32.00;99.80;;;;;;5038555;28;20037;-75
2022/08/04 11:22:10;;;;;;;7.97;1.67;;;31.70;99.80;;;;;;5042213;28;20043;-75
2022/08/04 11:25:12;;;;;;;4.13;1.30;;;31.80;99.70;;;;;;5039808;28;20176;-76
2022/08/04 11:27:59;;;;;;;4.78;0.90;;;31.60;99.30;;;;;;5033963;28;20041;-75
2022/08/04 11:30:31;;;;;;;2.78;0.90;;;31.60;99.20;;;;;;5039257;28;20069;-76
2022/08/04 11:33:04;;;;;;;2.45;0.77;;;31.40;99.00;;;;;;5039180;28;20121;-76
2022/08/04 11:35:50;;;;;;;2.47;0.85;;;31.40;99.30;;;;;;5040967;28;20052;-75
2022/08/04 11:38:27;;;;;;;3.22;0.82;;;31.50;99.20;;;;;;5042025;28;20083;-75
2022/08/04 11:41:00;;;;;;;2.53;0.82;;;31.50;99.60;;;;;;5041651;28;20116;-76
2022/08/04 11:43:49;;;;;;;2.75;1.00;;;31.40;99.40;;;;;;5040038;28;20083;-76
2022/08/04 11:46:36;;;;;;;4.03;0.80;;;31.30;99.40;;;;;;5036441;28;20053;-75
2022/08/04 11:49:10;;;;;;;2.78;0.70;;;31.20;99.40;;;;;;5043673;28;20045;-75
2022/08/04 11:51:37;;;;;;;2.70;0.68;;;31.40;99.50;;;;;;5044515;28;20428;-74
2022/08/04 11:54:03;;;;;;;4.07;0.85;;;31.50;99.30;;;;;;5045753;28;20041;-74
2022/08/04 11:56:30;;;;;;;1.83;0.68;;;31.20;98.60;;;;;;5049866;28;20115;-75
2022/08/04 11:58:58;;;;;;;6.30;1.00;;;31.00;98.60;;;;;;5045094;28;20091;-75
2022/08/04 12:01:24;;;;;;;1.98;0.90;;;30.80;98.60;;;;;;5044938;28;20041;-75
2022/08/04 12:04:06;;;;;;;4.32;0.80;;;30.30;98.70;;;;;;5047479;28;20401;-75
2022/08/04 12:06:51;;;;;;;3.53;0.93;;;30.30;99.70;;;;;;5042032;28;20393;-74
2022/08/04 12:09:35;;;;;;;2.50;0.90;;;30.60;99.20;;;;;;5050898;28;20033;-75
2022/08/04 12:12:22;;;;;;;5.38;1.00;;;30.60;99.40;;;;;;5042627;28;20055;-75
2022/08/04 12:14:58;;;;;;;3.60;0.95;;;30.50;98.90;;;;;;5042803;28;20086;-75
2022/08/04 12:17:33;;;;;;;3.55;0.90;;;30.50;98.70;;;;;;5040590;28;20497;-75
2022/08/04 12:20:04;;;;;;;2.25;0.68;;;30.40;98.60;;;;;;5036424;28;20447;-75
2022/08/04 12:22:39;;;;;;;1.63;0.60;;;30.30;98.60;;;;;;5044951;28;20033;-75
2022/08/04 12:25:13;;;;;;;4.63;0.80;;;30.10;99.20;;;;;;5046520;28;20040;-76
2022/08/04 12:27:46;;;;;;;1.67;0.55;;;30.10;99.10;;;;;;5047713;28;20489;-75
2022/08/04 12:30:15;;;;;;;1.85;0.70;;;29.90;98.80;;;;;;5039712;28;20049;-75
2022/08/04 12:32:58;;;;;;;4.78;0.68;;;29.80;98.90;;;;;;5042726;28;20045;-75
2022/08/04 12:35:34;;;;;;;2.58;0.70;;;29.80;98.80;;;;;;5039101;28;20056;-75
2022/08/04 12:38:06;;;;;;;2.90;0.70;;;29.70;98.70;;;;;;5037230;28;20128;-75
2022/08/04 12:40:52;;;;;;;2.17;0.80;;;29.60;98.80;;;;;;5041598;28;20080;-75
2022/08/04 12:43:22;;;;;;;2.42;0.50;;;29.40;99.40;;;;;;5039598;28;20049;-74
2022/08/04 12:45:55;;;;;;;3.08;0.68;;;29.30;99.30;;;;;;5030115;28;20120;-75
2022/08/04 12:48:24;;;;;;;1.80;0.60;;;29.20;99.30;;;;;;5026312;28;20045;-75
2022/08/04 12:50:55;;;;;;;3.33;0.60;;;29.20;99.50;;;;;;5041452;28;20050;-75
2022/08/04 12:53:27;;;;;;;1.50;0.57;;;29.40;99.60;;;;;;5040490;28;20084;-74
2022/08/04 12:55:54;;;;;;;2.40;0.60;;;29.70;99.30;;;;;;5040550;28;20520;-75
2022/08/04 12:58:23;;;;;;;2.97;0.70;;;29.70;98.20;;;;;;5043632;28;20041;-75
2022/08/04 13:01:11;;;;;;;2.13;0.73;;;29.70;98.40;;;;;;5038702;28;20095;-74
2022/08/04 13:03:43;;;;;;;2.83;0.50;;;29.70;98.10;;;;;;5045139;28;20119;-75
2022/08/04 13:06:13;;;;;;;1.65;0.70;;;29.80;98.20;;;;;;5048365;28;20048;-75
2022/08/04 13:08:41;;;;;;;1.42;0.57;;;29.70;98.00;;;;;;5038791;28;20042;-74
2022/08/04 13:11:10;;;;;;;3.10;0.82;;;29.60;98.00;;;;;;5027033;28;20045;-75
2022/08/04 13:13:37;;;;;;;2.92;0.55;;;29.60;98.10;;;;;;5022606;28;20432;-74
2022/08/04 13:16:09;;;;;;;2.80;0.60;;;29.60;98.20;;;;;;5041284;28;20091;-75
2022/08/04 13:18:46;;;;;;;2.40;0.70;;;29.60;98.00;;;;;;5047445;28;20041;-75
2022/08/04 13:21:19;;;;;;;1.55;0.55;;;29.70;98.30;;;;;;5039055;28;20046;-75
2022/08/04 13:23:45;;;;;;;1.60;0.40;;;29.90;97.40;;;;;;5035214;28;20420;-76
2022/08/04 13:26:16;;;;;;;1.02;0.50;;;30.00;97.20;;;;;;5038955;28;20073;-75
2022/08/04 13:28:45;;;;;;;3.60;0.70;;;30.00;97.50;;;;;;5048990;28;20509;-75
2022/08/04 13:31:15;;;;;;;1.83;0.40;;;30.00;97.50;;;;;;5035857;28;20038;-75
2022/08/04 13:33:42;;;;;;;0.95;0.40;;;29.80;97.60;;;;;;5038938;28;20041;-75
2022/08/04 13:36:09;;;;;;;1.60;0.57;;;29.90;98.00;;;;;;5029348;28;20485;-75